Timeline UpdatesTrip UpdatesNews PostsPvt PostsTravel TipsAdmin PostsConv PostsFollowed PostsChat RequestsBlog PostsPNR Posts

Disclaimer
Search
 
 
Tue Sep 2, 2014 10:01:16 ISTHomeTrainsΣChainsAtlasPNRForumGalleryNewsFAQTripsMembersLoginFeedback
No Recent News for this Train
Other Trains in the News **new
Latest...
.
Sat Feb 22, 2014 (11:06PM)
⇐ Return Journey: Train# 58114

58113/Tatanagar Bilaspur Passenger

Time-Table HAS CHANGED.
Today (12:23AM)
Change Departure Station:
Change Arrival Station:
Post a Train Travel TipPost a Train Travel Tip **new
Post a Comment/Question/Picture/VideoPost a Comment/Question/Picture/Video
Pantry/Catering
✕ NO Pantry Car
✕ NO Catering
RSA - Rake Sharing
Rake/Coach Composition
ENG:SLR-1 UR-3 SL-4 UR-3 VP-1 SLR-1; Entry# 189608 ; Author: sunilsagitarius
Loco
WAM-4 TATA/WAG-5 TATA
News    PNR    Forum    Time-Table    Availability    Fare Chart    Map    Arr/Dep History    Trips    Gallery    ΣChains    X/O    Timeline    
Travel Time: 11h 5m    49 halts    Distance: 426 km    Avg Speed: 38 km/hr
Type: Passenger
Zone: SER/South Eastern
Departs @ 17:45
Platform# 1
SMTWTFS
Tatanagar Junction/TATA 
Arrives @ 04:50 +1 night
Platform# ???
SMTWTFS
Naila/NIA 

49 halts. 55 intermediate Stations between Tatanagar Junction and Naila

Hide intermediate Stations  Show Old Time-Table

#CodeStation NameX/OArrivesAvgDepartsAvgHaltPFDay#KmSpeedElevZoneAddress
1TATA»Tatanagar Junction (5)»  -17:45-110.025164mSER91-657-2423026, Jharkhand
2ADTPAdityapur (3)  17:56-17:57-1m114.740152mSERJamshedpur, Jharkhand
3GMHGamharia (3)  18:05 18:06-18:06 18:07-1m1110.751165mSERJamshedpur, Jharkhand
3.1BRBSBirbansX  18:18-18:18-  119.7 51171mSERBirbans, Jharkhand
4SINISini Junction (3)X  18:20 18:26-18:21 18:27-1m--127.058182mSERNational Highway 33, Jharkhand
5MMVMahali Marup (2)  18:30 18:35-18:31 18:36-1m--134.750183mSERMahali Marup Station, Jharkhand
6RKSNRajkharsawan Junction (3)  18:40 18:45-18:41 18:46-1m--142.256189mSERSaraikela Kharswan District, Jharkhand
7BRMBarabamboXO  18:51 18:56-18:52 18:57-1m--151.630213mSERBarabambo Station, Jharkhand
8CKPChakradharpur (3)  19:20 19:18-19:30 19:20-10 2m--162.364235mSERChakradharpur (West Singhbhum), Jharkhand
9LPHLotapahar  19:38 19:29-19:39 19:30-1m--171.857251mSERLotapahar Station, Jharkhand
10SWRSonua  19:49 19:42-19:50 19:43-1m--183.245287mSERSonua, Jharkhand
11TUXTuniaO  19:56 19:51-19:57 19:52-1m--189.245297mSERTunia Station, Jharkhand
12GOLGoilkera (2)XO  20:05 20:01-20:06 20:02-1m--196.034333mSERGoilkera, Jharkhand
12.1MXWMahadevsal  20:11-20:11-  1101.4 34321mSERMahadevsal, Jharkhand
13DRWNDerowan P. Halt  20:22 20:19-20:23 20:20-1m--1105.741275mSERDerowan, Jharkhand
14PSTPosotia (4)  20:30-20:31-1m--1112.533279mSERPosotia Station, Jharkhand
15MOUManoharpurX  20:44 20:51-20:45 20:52-1m--1123.562228mSERManoharpur, Jharkhand
16JRAJaraikela  20:56 21:03-20:57 21:04-1m--1134.956215mSERJaraikela Station, Jharkhand
17BULBhalulataX  21:05 21:12-21:06 21:13-1m--1142.458239mSERRourkela, Jharkhand
18BZRBisraX  21:11 21:20-21:12 21:21-1m--1149.251224mSERSundargarh, Odisha
18.1ACABBondamunda A Cabin  21:28-21:28-  1154.7 51214mSERRourkela, Odisha
19BNDMBondamunda (2)  21:19 21:30-21:20 21:31-1m--1156.823213mSERRourkela, Odisha
20ROURourkela Junction (5)X  22:00 21:48-22:15 22:03-15m--1163.352198mSERRourkela, Odisha
21PPOPanposh (2)X  22:23 22:10-22:24 22:11-1m--1169.350190mSERRourkela, Odisha
22KLGKalunga  22:34 22:20-22:35 22:21-1m--1176.861203mSERSundargarh, Odisha
23KXNKanshbahalX  22:42 22:28-22:43 22:29-1m--1183.961220mSERSundargarh, Odisha
24GPRaj Gangpur (3)  22:53 22:38-22:54 22:39-1m--1193.162237mSERRaj Ganpur, Odisha
25SXNSonakhan  23:02 22:46-23:03 22:47-1m--1200.455249mSERSundargarh, Odisha
26SOGRSogra  23:10 22:54-23:11 22:55-1m--1206.912293mSERState Highway 10, Odisha
27GPHGarpos (3)  23:17 23:19-23:18 23:20-1m--1211.633278mSERSundargarh, Odisha
28TGMTangarmundaO  23:27 23:34-23:28 23:35-1m--1219.327264mSERSundargarh, Odisha
29BMBBamra (3)  23:38 23:54-23:39 23:55-1m--1227.730259mSERBamra PH : 06642-229268, Odisha
30DIHDharuadihiO  23:52 00:14-23:53 00:15-1m--2237.316258mSERSH 24, Odisha
31BEHBagdihi (3)  00:01 00:38-00:02 00:39-1m--2243.656254mSERState Highway 24 PH: 06640-286227, Odisha
32PNPLPanpaliX  00:08 00:46-00:09 00:47-1m--2250.247258mSERJharsuguda, Odisha
33DTVDhutra  00:14 00:54-00:15 00:55-1m--2255.613240mSERJharsuguda, Odisha
33.1JSRYJharsuguda R - YardXO  01:05-01:05-  2257.7 13224mSERDhutra, Odisha
34JSGJharsuguda Junction (5)X  01:30 01:35-01:45 01:50-15m--2264.290236mSERJharsuguda, Odisha
35IBIb  01:51 01:56-01:52 01:57-1m--2273.240207mSECRJharsuguda, Odisha
36BRJNBrajrajnagar  01:56 02:01-01:57 02:02-1m--2275.967212mSECRBrajrajnagar, Odisha
37BPHBelpahar  02:05 02:10-02:06 02:11-1m--2284.867235mSECRBelpahar, Odisha
38HGRHimgir  02:18 02:23-02:19 02:24-1m--2298.364275mSECRNational Highway 200, Chhattisgarh
39DAODaghora  02:26 02:31-02:27 02:32-1m--2305.772269mSECRRaigarh, Chhattisgarh
40JMGJamga  02:37 02:42-02:38 02:43-1m--2317.773233mSECRJamga Station, Chhattisgarh
41KRLKotarlia  02:45 02:50-02:46 02:51-1m--2326.253229mSECRRaigarh, Chhattisgarh
42RIGRaigarh (3)X  03:00 03:02-03:05 03:12-5 10m--2335.962220mSECRRaigarh, Chhattisgarh
43KDTRKirodimalnagar (5)  03:12 03:19-03:13 03:20-1m--2343.179240mSECRRaigarh, Chhattisgarh
44BEFBhupdeopur  03:20 03:27-03:21 03:28-1m--2352.377243mSECRRaigarh, Chhattisgarh
45ROBRobertson  03:28 03:35-03:29 03:36-1m--2361.464239mSECRRaigarh, Chhattisgarh
46KHSKharsia  03:37 03:44-03:38 03:45-1m--2369.945259mSECRNational Highway 200, Chhattisgarh
47JDIJharradih  03:44 03:52-03:45 03:53-1m--2375.168247mSECRRaigarh, Chhattisgarh
48SKTSakti (4)  03:54 04:02-03:55 04:03-1m--2385.264237mSECRJanjgir-Champa, Chhattisgarh
48.1JDDAJetha  04:10-04:10-  2393.0 64244mSECRNational Highway 200, Chhattisgarh
49BUABaradwarO  04:09 04:17-04:10 04:18-1m--2400.152256mSECRJanjgir-Champa, Chhattisgarh
49.1SGRDSaragaon Road  04:17 04:26-04:18 04:26-  2406.7 52254mSECRNational Highway 200, Chhattisgarh
50CPHChampa Junction (3)O  04:30 04:36-04:35 04:41-5m--2415.672264mSECRNational Highway 200 (07819-245767), Chhattisgarh
51NIA•Naila•  04:44 04:50-04:45 04:51-1m--2426.562273mSECRJanjgir, Chhattisgarh
52KPNAKapan (1)  04:52 04:58-04:53 04:59-1m12433.758263mSECRNational Highway 200, Chhattisgarh
53AKTAkaltara (4)X  05:01 05:07-05:02 05:08-1m--2441.455284mSECRDist. Janjgir Champa, Chhattisgarh
53.1LATILatia Cabin  05:10-05:10-  2443.5 55270mSECRKotmi Road, Chhattisgarh
54KTSHKotmi Sonar Halt  05:09 05:15-05:10 05:16-1m--2447.857266mSECRKotmisunar, Chhattisgarh
55JRMGJairamnagar  05:19 05:23-05:20 05:24-1m--2454.522272mSECRNational Highway 200, Chhattisgarh
56GTWGatora  05:49 05:45-05:50 05:46-1m--2462.27268mSECRBilaspur, Chhattisgarh
57BSPBilaspur Junction (8)  06:45--22468.7-271mSECRBilaspur, Chhattisgarh
Scroll to Top
Scroll to Bottom